• Join FlightAware (Why Join?)
  • Login
  • US Flag 
05:15AM EDT


 

Airport Tracker/Info


-or-


 

Live Flight TrackerFlight Track Log ✈ LBQ830 ✈ 25-Apr-2012 ✈ KVDF - KMCO

Flight Track Log - Related Links

Times and Time Zones

All times are in EDT time to prevent confusion due to time zone crossing. See the LBQ830 flight status page for this flight to view local times or setup timezone preferences in your user account.

Time Position Orientation Groundspeed Altitude Reporting Facility
EDT Latitude Longitude Course Direction KTS MPH feet Rate Location/Type
09:10PM 28.0333 -82.3000 74° East 131 151 1,800  Level Tampa TRACON
09:12PM 28.0500 -82.2333 111° Southeast 155 178 3,000 900 Climbing Tampa TRACON
09:13PM 28.0333 -82.1833 90° East 163 188 4,000 900 Climbing Tampa TRACON
09:14PM 28.0333 -82.1500 90° East 152 175 4,800 360 Climbing Tampa TRACON
09:15PM 28.0333 -82.0500 90° East 193 222 5,100 60 Climbing Orlando TRACON
09:16PM 28.0333 -81.9833 90° East 199 229 5,100  Level Orlando TRACON
09:17PM 28.0333 -81.9167 53° Northeast 199 229 5,100  Level Orlando TRACON
09:18PM 28.0667 -81.8667 53° Northeast 198 228 5,100  Level Orlando TRACON
09:19PM 28.1000 -81.8167 53° Northeast 199 229 5,100 -240 Level Orlando TRACON
09:20PM 28.1333 -81.7667 74° East 208 239 4,700 -540 Descending Orlando TRACON
09:21PM 28.1500 -81.7000 30° Northeast 218 251 4,200 -420 Descending Orlando TRACON
09:22PM 28.2000 -81.6667 41° Northeast 213 245 4,000 -480 Descending Orlando TRACON
09:23PM 28.2500 -81.6167 41° Northeast 219 252 3,300 -480 Descending Orlando TRACON
09:24PM 28.3000 -81.5667 41° Northeast 220 253 3,000 -180 Descending Orlando TRACON
09:25PM 28.3333 -81.5333 41° Northeast 208 239 3,000  Level Orlando TRACON
09:26PM 28.3833 -81.4833 16° North 203 234 3,100  Climbing Orlando TRACON
09:27PM 28.4333 -81.4667 30° Northeast 194 223 3,000 -360 Descending Orlando TRACON
09:28PM 28.4833 -81.4333 90° East 196 226 2,500 -420 Descending Orlando TRACON
09:29PM 28.4833 -81.3833 90° East 171 197 2,200 -540 Descending Orlando TRACON
09:30PM 28.4833 -81.3333 90° East 151 174 1,500 -780 Descending Orlando TRACON